createdAt,value
2022-10-07T00:02:44.959Z,13.60
2022-10-07T00:06:00.049Z,13.62
2022-10-07T00:09:06.741Z,13.57
2022-10-07T00:12:11.781Z,13.61
2022-10-07T00:15:17.118Z,13.55
2022-10-07T00:18:22.069Z,13.49
2022-10-07T00:21:29.002Z,13.54
2022-10-07T00:24:35.199Z,13.51
2022-10-07T00:27:40.089Z,13.47
2022-10-07T00:30:44.866Z,13.50
2022-10-07T00:33:50.816Z,13.40
2022-10-07T00:36:55.559Z,13.38
2022-10-07T00:40:02.008Z,13.44
2022-10-07T00:43:21.879Z,13.48
2022-10-07T00:46:31.988Z,13.40
2022-10-07T00:49:42.807Z,13.32
2022-10-07T00:52:51.061Z,13.34
2022-10-07T00:56:01.750Z,13.37
2022-10-07T00:59:06.664Z,13.33
2022-10-07T01:02:13.246Z,13.35
2022-10-07T01:05:19.252Z,13.34
2022-10-07T01:08:25.164Z,13.38
2022-10-07T01:11:43.611Z,13.33
2022-10-07T01:14:57.793Z,13.35
2022-10-07T01:18:10.419Z,13.36
2022-10-07T01:21:24.108Z,13.30
2022-10-07T01:24:41.573Z,13.36
2022-10-07T01:27:51.551Z,13.34
2022-10-07T01:30:59.714Z,13.31
2022-10-07T01:34:05.631Z,13.32
2022-10-07T01:37:16.159Z,13.28
2022-10-07T01:40:24.941Z,13.31
2022-10-07T01:43:31.900Z,13.22
2022-10-07T01:46:38.041Z,13.23
2022-10-07T01:49:43.883Z,13.22
2022-10-07T01:53:05.543Z,13.15
2022-10-07T01:56:26.175Z,13.18
2022-10-07T02:00:10.097Z,13.12
2022-10-07T02:03:47.253Z,13.14
2022-10-07T02:06:56.275Z,13.05
2022-10-07T02:10:11.167Z,13.13
2022-10-07T02:13:22.967Z,13.11
2022-10-07T02:16:33.555Z,13.13
2022-10-07T02:19:43.675Z,13.09
2022-10-07T02:22:50.139Z,13.14
2022-10-07T02:25:55.733Z,13.10
2022-10-07T02:29:02.988Z,13.11
2022-10-07T02:32:14.192Z,13.10
2022-10-07T02:35:25.136Z,13.12
2022-10-07T02:38:30.788Z,13.07
2022-10-07T02:41:41.973Z,13.13
2022-10-07T02:44:56.870Z,13.08
2022-10-07T02:48:09.480Z,13.05
2022-10-07T02:51:21.316Z,13.09
2022-10-07T02:54:33.060Z,13.14
2022-10-07T02:57:42.639Z,13.06
2022-10-07T03:00:52.945Z,13.10
2022-10-07T03:04:00.269Z,13.10
2022-10-07T03:07:05.272Z,13.01
2022-10-07T03:10:11.221Z,13.09
2022-10-07T03:13:16.576Z,13.15
2022-10-07T03:16:26.501Z,13.29
2022-10-07T03:19:33.299Z,13.28
2022-10-07T03:22:38.169Z,13.15
2022-10-07T03:25:42.879Z,13.20
2022-10-07T03:28:49.042Z,13.20
2022-10-07T03:31:54.752Z,13.22
2022-10-07T03:35:01.114Z,13.26
2022-10-07T03:38:08.639Z,13.27
2022-10-07T03:41:13.754Z,13.36
2022-10-07T03:44:19.895Z,13.33
2022-10-07T03:47:24.923Z,13.31
2022-10-07T03:50:31.530Z,13.22
2022-10-07T03:53:39.044Z,13.25
2022-10-07T03:56:44.349Z,13.30
2022-10-07T03:59:49.092Z,13.35
2022-10-07T04:02:55.025Z,13.33
2022-10-07T04:06:01.631Z,13.30
2022-10-07T04:09:09.723Z,13.32
2022-10-07T04:12:14.634Z,13.35
2022-10-07T04:15:20.086Z,13.29
2022-10-07T04:18:25.330Z,13.30
2022-10-07T04:21:33.723Z,13.38
2022-10-07T04:24:38.720Z,13.38
2022-10-07T04:27:52.074Z,13.34
2022-10-07T04:30:57.819Z,13.32
2022-10-07T04:34:10.951Z,13.34
2022-10-07T04:37:20.460Z,13.30
2022-10-07T04:40:27.836Z,13.24
2022-10-07T04:43:34.355Z,13.17
2022-10-07T04:46:43.869Z,13.16
2022-10-07T04:49:53.750Z,13.20
2022-10-07T04:53:00.298Z,13.28
2022-10-07T04:56:11.278Z,13.23
2022-10-07T04:59:16.946Z,13.26
2022-10-07T05:02:22.173Z,13.23
2022-10-07T05:05:27.986Z,13.20
2022-10-07T05:08:35.787Z,13.24
2022-10-07T05:11:41.011Z,13.26
2022-10-07T05:14:51.271Z,13.26
2022-10-07T05:17:56.168Z,13.30
2022-10-07T05:21:06.392Z,13.31
2022-10-07T05:24:16.227Z,13.36
2022-10-07T05:27:21.015Z,13.34
2022-10-07T05:30:26.047Z,13.38
2022-10-07T05:33:31.756Z,13.39
2022-10-07T05:36:37.343Z,13.39
2022-10-07T05:39:45.127Z,13.38
2022-10-07T05:42:54.759Z,13.43
2022-10-07T05:46:02.354Z,13.48
2022-10-07T05:49:09.182Z,13.50
2022-10-07T05:52:16.282Z,13.56
2022-10-07T05:55:24.623Z,13.59
2022-10-07T05:58:30.533Z,13.66
2022-10-07T06:01:35.654Z,13.71
2022-10-07T06:04:47.528Z,13.67
2022-10-07T06:07:53.251Z,13.68
2022-10-07T06:11:19.568Z,13.71
2022-10-07T06:14:25.020Z,13.81
2022-10-07T06:17:29.936Z,13.80
2022-10-07T06:20:37.727Z,13.85
2022-10-07T06:23:42.530Z,13.87
2022-10-07T06:26:51.464Z,13.89
2022-10-07T06:29:57.465Z,13.85
2022-10-07T06:33:02.326Z,13.90
2022-10-07T06:36:10.353Z,13.82
2022-10-07T06:39:16.287Z,13.82
2022-10-07T06:42:23.442Z,13.86
2022-10-07T06:45:54.629Z,13.91
2022-10-07T06:49:00.272Z,13.94
2022-10-07T06:52:05.224Z,13.99
2022-10-07T06:55:11.617Z,14.02
2022-10-07T06:58:18.727Z,14.11
2022-10-07T07:01:23.611Z,14.07
2022-10-07T07:04:29.120Z,14.11
2022-10-07T07:07:34.387Z,14.15
2022-10-07T07:10:41.243Z,14.11
2022-10-07T07:13:49.761Z,14.14
2022-10-07T07:16:55.146Z,14.10
2022-10-07T07:20:02.952Z,14.23
2022-10-07T07:23:10.088Z,14.23
2022-10-07T07:26:15.310Z,14.28
2022-10-07T07:29:22.651Z,14.22
2022-10-07T07:32:38.131Z,14.24
2022-10-07T07:35:43.632Z,14.29
2022-10-07T07:38:53.204Z,14.27
2022-10-07T07:41:58.861Z,14.31
2022-10-07T07:45:06.157Z,14.27
2022-10-07T07:48:15.520Z,14.32
2022-10-07T07:51:21.511Z,14.30
2022-10-07T07:54:28.470Z,14.32
2022-10-07T07:57:33.548Z,14.33
2022-10-07T08:00:44.161Z,14.40
2022-10-07T08:03:50.593Z,14.44
2022-10-07T08:06:56.277Z,14.45
2022-10-07T08:10:01.952Z,14.47
2022-10-07T08:13:08.419Z,14.48
2022-10-07T08:16:16.887Z,14.50
2022-10-07T08:19:24.123Z,14.39
2022-10-07T08:22:30.048Z,14.55
2022-10-07T08:25:35.048Z,14.61
2022-10-07T08:28:42.765Z,14.60
2022-10-07T08:31:50.565Z,14.57
2022-10-07T08:34:56.263Z,14.61
2022-10-07T08:38:01.270Z,14.64
2022-10-07T08:41:28.340Z,14.67
2022-10-07T08:44:38.406Z,14.77
2022-10-07T08:47:47.644Z,14.76
2022-10-07T08:50:58.263Z,14.89
2022-10-07T08:54:02.988Z,14.91
2022-10-07T08:57:15.465Z,14.93
2022-10-07T09:00:22.337Z,14.95
2022-10-07T09:03:38.554Z,14.99
2022-10-07T09:06:46.763Z,15.02
2022-10-07T09:09:56.819Z,15.03
2022-10-07T09:13:04.816Z,15.06
2022-10-07T09:16:13.394Z,15.16
2022-10-07T09:19:30.064Z,15.17
2022-10-07T09:22:38.673Z,15.23
2022-10-07T09:25:43.901Z,15.22
2022-10-07T09:28:50.068Z,15.25
2022-10-07T09:31:55.850Z,15.31
2022-10-07T09:35:06.085Z,15.38
2022-10-07T09:38:13.269Z,15.36
2022-10-07T09:41:21.490Z,15.44
2022-10-07T09:44:28.014Z,15.52
2022-10-07T09:47:40.485Z,15.50
2022-10-07T09:50:46.824Z,15.45
2022-10-07T09:54:02.830Z,15.50
2022-10-07T09:57:14.524Z,15.44
2022-10-07T10:00:26.965Z,15.39
2022-10-07T10:03:33.971Z,15.41
2022-10-07T10:06:48.321Z,15.42
2022-10-07T10:09:54.928Z,15.45
2022-10-07T10:13:03.628Z,15.33
2022-10-07T10:16:36.114Z,15.47
2022-10-07T10:19:41.288Z,15.48
2022-10-07T10:22:47.808Z,15.53
2022-10-07T10:26:29.591Z,15.54
2022-10-07T10:29:54.042Z,15.59
2022-10-07T10:33:21.122Z,15.51
2022-10-07T10:36:27.940Z,15.48
2022-10-07T10:39:49.566Z,15.54
2022-10-07T10:43:02.382Z,15.51
2022-10-07T10:46:25.756Z,15.48
2022-10-07T10:49:36.363Z,15.33
2022-10-07T10:52:53.749Z,15.45
2022-10-07T10:56:13.813Z,15.37
2022-10-07T10:59:43.672Z,15.39
2022-10-07T11:03:13.754Z,15.49
2022-10-07T11:06:19.991Z,15.47
2022-10-07T11:09:32.786Z,15.54
2022-10-07T11:12:43.150Z,15.54
2022-10-07T11:15:51.709Z,15.49
2022-10-07T11:19:00.932Z,15.53
2022-10-07T11:22:09.289Z,15.54
2022-10-07T11:25:25.659Z,15.66
2022-10-07T11:28:36.988Z,15.71
2022-10-07T11:31:45.349Z,15.75
2022-10-07T11:34:56.215Z,15.70
2022-10-07T11:38:07.551Z,15.59
2022-10-07T11:41:19.903Z,15.74
2022-10-07T11:44:30.168Z,15.78
2022-10-07T11:47:39.767Z,15.88
2022-10-07T11:50:50.548Z,15.87
2022-10-07T11:53:56.979Z,15.87
2022-10-07T11:57:01.996Z,15.94
2022-10-07T12:00:23.821Z,16.01
2022-10-07T12:03:48.601Z,16.05
2022-10-07T12:07:58.118Z,16.16
2022-10-07T12:11:40.812Z,16.26
2022-10-07T12:14:47.363Z,16.21
2022-10-07T12:17:57.329Z,16.33
2022-10-07T12:21:09.789Z,16.28
2022-10-07T12:24:17.006Z,16.32
2022-10-07T12:27:24.643Z,16.31
2022-10-07T12:30:43.437Z,16.36
2022-10-07T12:33:58.019Z,16.33
2022-10-07T12:37:41.042Z,16.38
2022-10-07T12:40:51.699Z,16.35
2022-10-07T12:44:06.444Z,16.44
2022-10-07T12:47:20.550Z,16.53
2022-10-07T12:50:27.786Z,16.49
2022-10-07T12:53:41.656Z,16.52
2022-10-07T12:56:46.805Z,16.47
2022-10-07T13:00:00.292Z,16.46
2022-10-07T13:03:38.368Z,16.53
2022-10-07T13:07:38.855Z,16.54
2022-10-07T13:11:04.574Z,16.57
2022-10-07T13:14:14.901Z,16.59
2022-10-07T13:17:30.805Z,16.63
2022-10-07T13:20:47.595Z,16.63
2022-10-07T13:23:55.902Z,16.67
2022-10-07T13:27:01.043Z,16.60
2022-10-07T13:30:08.455Z,16.65
2022-10-07T13:33:28.031Z,16.66
2022-10-07T13:36:33.587Z,16.59
2022-10-07T13:39:41.160Z,16.66
2022-10-07T13:42:46.369Z,16.70
2022-10-07T13:45:51.696Z,16.65
2022-10-07T13:48:57.124Z,16.67
2022-10-07T13:52:06.131Z,16.68
2022-10-07T13:55:28.443Z,16.59
2022-10-07T13:58:33.903Z,16.69
2022-10-07T14:01:40.714Z,16.65
2022-10-07T14:04:54.510Z,16.69
2022-10-07T14:08:01.691Z,16.71
2022-10-07T14:11:14.656Z,16.69
2022-10-07T14:14:22.120Z,16.65
2022-10-07T14:17:35.795Z,16.68
2022-10-07T14:20:43.860Z,16.66
2022-10-07T14:23:48.855Z,16.62
2022-10-07T14:26:55.123Z,16.57
2022-10-07T14:30:01.457Z,16.60
2022-10-07T14:33:30.503Z,16.61
2022-10-07T14:36:36.266Z,16.62
2022-10-07T14:39:43.462Z,16.59
2022-10-07T14:42:49.880Z,16.57
2022-10-07T14:45:55.345Z,16.53
2022-10-07T14:49:00.600Z,16.61
2022-10-07T14:52:06.283Z,16.49
2022-10-07T14:55:18.504Z,16.54
2022-10-07T14:58:25.462Z,16.50
2022-10-07T15:01:31.010Z,16.48
2022-10-07T15:04:35.871Z,16.48
2022-10-07T15:07:40.983Z,16.47
2022-10-07T15:10:46.402Z,16.49
2022-10-07T15:13:52.862Z,16.40
2022-10-07T15:16:57.734Z,16.35
2022-10-07T15:20:02.472Z,16.30
2022-10-07T15:23:08.847Z,16.32
2022-10-07T15:26:14.279Z,16.20
2022-10-07T15:29:21.891Z,16.23
2022-10-07T15:32:29.555Z,16.24
2022-10-07T15:35:36.231Z,16.14
2022-10-07T15:38:41.503Z,16.12
2022-10-07T15:41:46.335Z,16.21
2022-10-07T15:44:53.142Z,16.12
2022-10-07T15:48:00.451Z,16.15
2022-10-07T15:51:05.700Z,16.14
2022-10-07T15:54:11.848Z,16.13
2022-10-07T15:57:16.511Z,16.11
2022-10-07T16:00:23.151Z,16.03
2022-10-07T16:03:29.499Z,16.01
2022-10-07T16:06:36.940Z,15.96
2022-10-07T16:09:42.007Z,15.97
2022-10-07T16:12:47.305Z,15.92
2022-10-07T16:16:03.004Z,15.87
2022-10-07T16:19:08.264Z,15.72
2022-10-07T16:22:16.582Z,15.47
2022-10-07T16:25:21.804Z,15.29
2022-10-07T16:28:44.312Z,15.41
2022-10-07T16:31:54.578Z,15.47
2022-10-07T16:35:02.271Z,15.48
2022-10-07T16:38:07.561Z,15.32
2022-10-07T16:41:14.904Z,15.32
2022-10-07T16:44:20.560Z,15.20
2022-10-07T16:47:26.691Z,15.27
2022-10-07T16:50:31.653Z,15.17
2022-10-07T16:53:36.413Z,15.24
2022-10-07T16:56:46.137Z,15.19
2022-10-07T16:59:53.369Z,15.07
2022-10-07T17:02:59.955Z,15.09
2022-10-07T17:06:05.400Z,14.98
2022-10-07T17:09:10.432Z,14.94
2022-10-07T17:12:16.294Z,14.88
2022-10-07T17:15:21.705Z,14.88
2022-10-07T17:18:28.713Z,14.79
2022-10-07T17:21:34.988Z,14.73
2022-10-07T17:24:40.076Z,14.78
2022-10-07T17:27:45.080Z,14.72
2022-10-07T17:30:50.148Z,14.70
2022-10-07T17:33:56.567Z,14.75
2022-10-07T17:37:01.292Z,14.72
2022-10-07T17:40:07.459Z,14.74
2022-10-07T17:43:15.183Z,14.67
2022-10-07T17:46:20.829Z,14.73
2022-10-07T17:49:27.092Z,14.56
2022-10-07T17:52:32.775Z,14.53
2022-10-07T17:55:37.731Z,14.56
2022-10-07T17:58:44.016Z,14.53
2022-10-07T18:01:48.907Z,14.46
2022-10-07T18:04:55.450Z,14.54
2022-10-07T18:08:00.187Z,14.53
2022-10-07T18:11:05.480Z,14.54
2022-10-07T18:14:27.692Z,14.48
2022-10-07T18:17:32.884Z,14.55
2022-10-07T18:20:41.597Z,14.49
2022-10-07T18:23:46.337Z,14.54
2022-10-07T18:26:51.095Z,14.51
2022-10-07T18:29:56.738Z,14.47
2022-10-07T18:33:01.613Z,14.47
2022-10-07T18:36:10.517Z,14.46
2022-10-07T18:39:15.603Z,14.49
2022-10-07T18:42:20.420Z,14.48
2022-10-07T18:45:25.368Z,14.46
2022-10-07T18:48:34.675Z,14.48
2022-10-07T18:51:40.906Z,14.52
2022-10-07T18:54:46.010Z,14.48
2022-10-07T18:57:50.752Z,14.51
2022-10-07T19:00:55.574Z,14.47
2022-10-07T19:04:02.621Z,14.47
2022-10-07T19:07:09.503Z,14.48
2022-10-07T19:10:14.211Z,14.49
2022-10-07T19:13:36.344Z,14.43
2022-10-07T19:16:44.009Z,14.48
2022-10-07T19:19:49.212Z,14.44
2022-10-07T19:22:55.303Z,14.45
2022-10-07T19:26:01.894Z,14.46
2022-10-07T19:29:09.062Z,14.47
2022-10-07T19:32:15.293Z,14.40
2022-10-07T19:35:20.221Z,14.44
2022-10-07T19:38:27.195Z,14.43
2022-10-07T19:41:34.290Z,14.40
2022-10-07T19:44:40.042Z,14.40
2022-10-07T19:47:45.172Z,14.43
2022-10-07T19:51:00.590Z,14.31
2022-10-07T19:54:10.850Z,14.28
2022-10-07T19:57:16.046Z,14.26
2022-10-07T20:00:21.351Z,14.31
2022-10-07T20:03:26.070Z,14.26
2022-10-07T20:06:31.542Z,14.27
2022-10-07T20:09:38.403Z,14.33
2022-10-07T20:12:43.428Z,14.34
2022-10-07T20:15:48.282Z,14.38
2022-10-07T20:19:01.040Z,14.29
2022-10-07T20:22:07.092Z,14.32
2022-10-07T20:25:13.790Z,14.30
2022-10-07T20:28:18.659Z,14.19
2022-10-07T20:31:26.442Z,14.19
2022-10-07T20:34:31.667Z,14.20
2022-10-07T20:37:36.391Z,14.17
2022-10-07T20:41:00.011Z,14.20
2022-10-07T20:44:04.866Z,14.16
2022-10-07T20:47:11.372Z,14.12
2022-10-07T20:50:16.415Z,14.19
2022-10-07T20:53:22.136Z,14.22
2022-10-07T20:56:28.382Z,14.19
2022-10-07T20:59:34.006Z,14.17
2022-10-07T21:02:38.856Z,14.18
2022-10-07T21:05:43.652Z,14.23
2022-10-07T21:08:48.385Z,14.25
2022-10-07T21:11:56.835Z,14.14
2022-10-07T21:15:03.411Z,14.18
2022-10-07T21:18:09.532Z,14.20
2022-10-07T21:21:14.587Z,14.21
2022-10-07T21:24:19.553Z,14.15
2022-10-07T21:27:25.695Z,14.09
2022-10-07T21:30:30.911Z,14.12
2022-10-07T21:33:38.623Z,14.10
2022-10-07T21:36:49.335Z,14.12
2022-10-07T21:39:58.063Z,14.13
2022-10-07T21:43:04.427Z,14.11
2022-10-07T21:46:09.432Z,14.09
2022-10-07T21:49:15.160Z,14.13
2022-10-07T21:52:20.110Z,14.08
2022-10-07T21:55:24.844Z,14.05
2022-10-07T21:58:32.780Z,14.07
2022-10-07T22:01:38.249Z,14.05
2022-10-07T22:04:43.073Z,14.00
2022-10-07T22:08:07.583Z,13.99
2022-10-07T22:11:14.780Z,13.98
2022-10-07T22:14:21.748Z,14.01
2022-10-07T22:17:27.100Z,13.95
2022-10-07T22:20:32.169Z,13.96
2022-10-07T22:23:37.055Z,13.99
2022-10-07T22:26:45.843Z,13.90
2022-10-07T22:29:52.010Z,13.86
2022-10-07T22:32:56.803Z,13.84
2022-10-07T22:36:03.623Z,13.75
2022-10-07T22:39:08.602Z,13.83
2022-10-07T22:42:14.452Z,13.81
2022-10-07T22:45:20.734Z,13.90
2022-10-07T22:48:25.659Z,13.85
2022-10-07T22:51:30.689Z,13.86
2022-10-07T22:54:35.687Z,13.94
2022-10-07T22:57:40.404Z,13.86
2022-10-07T23:00:47.086Z,13.84
2022-10-07T23:03:54.788Z,13.82
2022-10-07T23:06:59.902Z,13.78
2022-10-07T23:10:05.856Z,13.76
2022-10-07T23:13:11.756Z,13.81
2022-10-07T23:16:20.338Z,13.83
2022-10-07T23:19:25.468Z,13.84
2022-10-07T23:22:30.382Z,13.85
2022-10-07T23:25:35.095Z,13.81
2022-10-07T23:28:41.280Z,13.82
2022-10-07T23:31:47.639Z,13.83
2022-10-07T23:34:52.600Z,13.86
2022-10-07T23:37:58.576Z,13.89
2022-10-07T23:41:03.922Z,13.90
2022-10-07T23:44:09.027Z,13.84
2022-10-07T23:47:15.422Z,13.80
2022-10-07T23:50:20.732Z,13.79
2022-10-07T23:53:26.321Z,13.82
2022-10-07T23:56:31.957Z,13.84
2022-10-07T23:59:37.230Z,13.91
